createdAt,value
2019-04-11T00:00:34.008Z,48.35
2019-04-11T00:03:03.182Z,48.77
2019-04-11T00:05:35.077Z,48.19
2019-04-11T00:08:04.350Z,49.04
2019-04-11T00:10:38.112Z,49.16
2019-04-11T00:13:17.216Z,49.45
2019-04-11T00:15:38.246Z,49.62
2019-04-11T00:18:08.260Z,49.27
2019-04-11T00:20:37.288Z,49.39
2019-04-11T00:23:06.511Z,49.57
2019-04-11T00:25:35.889Z,49.91
2019-04-11T00:28:05.771Z,49.93
2019-04-11T00:30:35.051Z,49.92
2019-04-11T00:33:06.031Z,50.16
2019-04-11T00:35:35.583Z,50.19
2019-04-11T00:38:05.551Z,49.93
2019-04-11T00:40:35.435Z,49.77
2019-04-11T00:43:05.225Z,50.18
2019-04-11T00:45:35.932Z,49.73
2019-04-11T00:48:05.802Z,49.66
2019-04-11T00:50:35.019Z,49.67
2019-04-11T00:53:05.503Z,49.39
2019-04-11T00:55:35.529Z,49.42
2019-04-11T00:58:05.583Z,49.92
2019-04-11T01:00:35.485Z,50.46
2019-04-11T01:03:06.502Z,49.72
2019-04-11T01:05:35.443Z,49.74
2019-04-11T01:08:05.253Z,50.43
2019-04-11T01:10:34.273Z,50.02
2019-04-11T01:13:03.405Z,50.01
2019-04-11T01:15:32.572Z,50.30
2019-04-11T01:18:03.528Z,50.49
2019-04-11T01:20:32.696Z,51.15
2019-04-11T01:23:02.754Z,50.98
2019-04-11T01:25:32.677Z,50.38
2019-04-11T01:28:02.629Z,50.64
2019-04-11T01:31:03.047Z,50.72
2019-04-11T01:33:32.010Z,50.74
2019-04-11T01:36:01.287Z,50.71
2019-04-11T01:38:34.639Z,51.03
2019-04-11T01:41:04.503Z,50.98
2019-04-11T01:43:33.543Z,50.87
2019-04-11T01:46:02.418Z,50.37
2019-04-11T01:48:57.619Z,49.95
2019-04-11T01:51:26.904Z,49.58
2019-04-11T01:53:55.868Z,50.07
2019-04-11T01:56:25.235Z,50.47
2019-04-11T01:58:55.121Z,50.79
2019-04-11T02:01:49.362Z,50.71
2019-04-11T02:04:30.124Z,50.76
2019-04-11T02:07:02.516Z,50.95
2019-04-11T02:09:32.433Z,50.45
2019-04-11T02:12:01.719Z,50.56
2019-04-11T02:14:31.252Z,50.42
2019-04-11T02:17:01.236Z,51.47
2019-04-11T02:19:30.288Z,51.77
2019-04-11T02:22:15.966Z,52.18
2019-04-11T02:25:12.280Z,51.44
2019-04-11T02:27:42.278Z,52.19
2019-04-11T02:30:14.365Z,52.45
2019-04-11T02:32:44.479Z,52.61
2019-04-11T02:35:15.309Z,52.42
2019-04-11T02:37:46.014Z,52.18
2019-04-11T02:40:15.572Z,52.61
2019-04-11T02:42:47.595Z,53.15
2019-04-11T02:45:33.467Z,52.89
2019-04-11T02:47:48.588Z,52.81
2019-04-11T02:50:19.793Z,53.07
2019-04-11T02:52:50.464Z,52.91
2019-04-11T02:55:21.069Z,53.25
2019-04-11T02:57:50.865Z,52.99
2019-04-11T03:00:20.860Z,53.23
2019-04-11T03:02:53.213Z,52.14
2019-04-11T03:05:22.650Z,52.14
2019-04-11T03:07:51.928Z,52.80
2019-04-11T03:10:21.424Z,53.10
2019-04-11T03:12:52.522Z,52.92
2019-04-11T03:15:37.797Z,53.32
2019-04-11T03:17:57.697Z,53.27
2019-04-11T03:20:31.687Z,53.82
2019-04-11T03:22:57.992Z,53.65
2019-04-11T03:25:25.796Z,54.26
2019-04-11T03:27:56.924Z,54.04
2019-04-11T03:30:42.143Z,54.34
2019-04-11T03:36:27.626Z,53.99
2019-04-11T03:38:25.833Z,54.09
2019-04-11T03:40:48.294Z,54.25
2019-04-11T03:43:11.853Z,54.32
2019-04-11T03:45:47.942Z,54.19
2019-04-11T03:48:19.708Z,54.20
2019-04-11T03:50:39.264Z,54.07
2019-04-11T03:53:11.703Z,54.18
2019-04-11T03:55:43.241Z,54.38
2019-04-11T03:58:15.459Z,54.76
2019-04-11T04:00:46.533Z,54.53
2019-04-11T04:03:15.924Z,54.63
2019-04-11T04:05:45.237Z,54.47
2019-04-11T04:08:14.467Z,54.33
2019-04-11T04:11:04.031Z,54.57
2019-04-11T04:13:34.558Z,54.33
2019-04-11T04:16:18.723Z,54.53
2019-04-11T04:19:15.806Z,54.96
2019-04-11T04:21:55.636Z,54.91
2019-04-11T04:24:34.456Z,55.13
2019-04-11T04:27:04.560Z,54.71
2019-04-11T04:29:36.266Z,55.20
2019-04-11T04:32:05.420Z,56.17
2019-04-11T04:34:36.064Z,56.73
2019-04-11T04:37:06.391Z,57.27
2019-04-11T04:39:37.692Z,56.79
2019-04-11T04:42:21.286Z,56.04
2019-04-11T04:44:40.846Z,56.64
2019-04-11T04:47:21.049Z,57.08
2019-04-11T04:49:41.187Z,56.34
2019-04-11T04:52:12.354Z,56.51
2019-04-11T04:54:41.154Z,56.28
2019-04-11T04:57:12.945Z,55.59
2019-04-11T04:59:42.514Z,55.26
2019-04-11T05:02:12.812Z,55.13
2019-04-11T05:04:43.506Z,54.87
2019-04-11T05:07:12.587Z,54.21
2019-04-11T05:09:42.625Z,52.97
2019-04-11T05:12:12.017Z,53.16
2019-04-11T05:14:40.984Z,52.24
2019-04-11T05:17:10.750Z,52.27
2019-04-11T05:19:40.454Z,51.85
2019-04-11T05:22:10.563Z,51.62
2019-04-11T05:24:40.753Z,51.58
2019-04-11T05:27:10.446Z,51.21
2019-04-11T05:29:39.737Z,51.13
2019-04-11T05:32:09.360Z,51.02
2019-04-11T05:34:39.322Z,50.77
2019-04-11T05:37:09.024Z,50.76
2019-04-11T05:39:38.162Z,50.38
2019-04-11T05:42:09.186Z,50.75
2019-04-11T05:44:40.257Z,50.30
2019-04-11T05:47:09.100Z,49.81
2019-04-11T05:50:10.004Z,50.18
2019-04-11T05:52:37.176Z,49.83
2019-04-11T05:55:11.464Z,49.53
2019-04-11T05:57:42.699Z,49.16
2019-04-11T06:00:19.378Z,49.19
2019-04-11T06:02:53.403Z,48.87
2019-04-11T06:05:40.821Z,48.61
2019-04-11T06:08:12.535Z,47.60
2019-04-11T06:10:48.424Z,47.01
2019-04-11T06:13:24.646Z,46.50
2019-04-11T06:15:56.652Z,47.18
2019-04-11T06:18:42.281Z,45.94
2019-04-11T06:21:13.860Z,44.71
2019-04-11T06:24:11.945Z,44.76
2019-04-11T06:26:48.922Z,45.00
2019-04-11T06:29:26.425Z,44.82
2019-04-11T06:32:09.704Z,44.08
2019-04-11T06:34:43.887Z,43.54
2019-04-11T06:37:21.299Z,42.86
2019-04-11T06:40:00.865Z,42.87
2019-04-11T06:42:43.413Z,42.52
2019-04-11T06:45:31.530Z,42.10
2019-04-11T06:48:11.477Z,42.44
2019-04-11T06:51:06.013Z,43.03
2019-04-11T06:53:39.968Z,43.39
2019-04-11T06:56:27.264Z,42.68
2019-04-11T06:59:01.659Z,43.34
2019-04-11T07:01:31.225Z,42.47
2019-04-11T07:04:09.608Z,41.91
2019-04-11T07:06:40.067Z,41.18
2019-04-11T07:09:30.839Z,42.00
2019-04-11T07:12:07.728Z,42.27
2019-04-11T07:15:00.082Z,42.07
2019-04-11T07:17:48.101Z,42.55
2019-04-11T07:20:35.737Z,41.97
2019-04-11T07:23:22.955Z,42.62
2019-04-11T07:25:55.991Z,42.62
2019-04-11T07:28:36.240Z,42.74
2019-04-11T07:31:23.351Z,42.75
2019-04-11T07:34:21.288Z,42.57
2019-04-11T07:37:07.797Z,41.84
2019-04-11T07:39:54.440Z,41.74
2019-04-11T07:42:49.655Z,41.30
2019-04-11T07:45:29.999Z,40.08
2019-04-11T07:48:07.105Z,38.34
2019-04-11T07:50:35.990Z,35.83
2019-04-11T07:53:05.079Z,34.78
2019-04-11T07:55:34.391Z,34.37
2019-04-11T07:58:21.661Z,34.64
2019-04-11T08:01:06.702Z,36.74
2019-04-11T08:03:53.625Z,38.76
2019-04-11T08:06:52.125Z,39.33
2019-04-11T08:09:31.179Z,38.22
2019-04-11T08:12:06.542Z,38.68
2019-04-11T08:14:49.233Z,38.28
2019-04-11T08:17:30.820Z,38.35
2019-04-11T08:20:25.715Z,37.99
2019-04-11T08:22:57.274Z,38.07
2019-04-11T08:25:45.321Z,37.81
2019-04-11T08:28:16.289Z,37.58
2019-04-11T08:31:03.523Z,37.46
2019-04-11T08:33:33.508Z,37.20
2019-04-11T08:36:13.692Z,36.97
2019-04-11T08:38:42.978Z,36.07
2019-04-11T08:41:37.973Z,36.25
2019-04-11T08:44:15.375Z,36.55
2019-04-11T08:46:47.214Z,36.51
2019-04-11T08:49:23.674Z,36.88
2019-04-11T08:51:53.717Z,36.75
2019-04-11T08:54:41.685Z,35.98
2019-04-11T08:57:11.783Z,36.11
2019-04-11T08:59:55.074Z,36.50
2019-04-11T09:02:35.372Z,35.88
2019-04-11T09:05:29.156Z,35.48
2019-04-11T09:08:26.808Z,35.36
2019-04-11T09:11:14.824Z,35.31
2019-04-11T09:13:55.682Z,34.16
2019-04-11T09:16:41.887Z,34.21
2019-04-11T09:19:18.825Z,33.57
2019-04-11T09:22:06.801Z,33.79
2019-04-11T09:24:54.711Z,33.06
2019-04-11T09:27:41.671Z,32.51
2019-04-11T09:30:17.442Z,32.17
2019-04-11T09:33:06.782Z,31.82
2019-04-11T09:35:37.397Z,31.61
2019-04-11T09:38:06.473Z,31.90
2019-04-11T09:40:41.699Z,33.32
2019-04-11T09:43:13.517Z,33.46
2019-04-11T09:46:08.080Z,34.03
2019-04-11T09:48:56.013Z,33.50
2019-04-11T09:51:42.860Z,33.38
2019-04-11T09:54:16.120Z,31.37
2019-04-11T09:57:07.894Z,31.69
2019-04-11T09:59:45.553Z,31.75
2019-04-11T10:02:33.306Z,31.44
2019-04-11T10:05:02.827Z,30.01
2019-04-11T10:07:50.278Z,30.42
2019-04-11T10:10:43.341Z,29.84
2019-04-11T10:13:46.263Z,30.33
2019-04-11T10:16:46.611Z,30.88
2019-04-11T10:19:32.280Z,30.64
2019-04-11T10:22:29.293Z,30.82
2019-04-11T10:25:03.510Z,30.79
2019-04-11T10:27:51.473Z,29.49
2019-04-11T10:30:39.810Z,29.52
2019-04-11T10:33:17.004Z,28.70
2019-04-11T10:36:18.978Z,29.25
2019-04-11T10:38:49.126Z,29.72
2019-04-11T10:41:37.935Z,29.90
2019-04-11T10:44:07.680Z,30.16
2019-04-11T10:46:55.715Z,30.07
2019-04-11T10:49:44.208Z,30.07
2019-04-11T10:52:28.765Z,30.03
2019-04-11T10:55:09.869Z,30.47
2019-04-11T10:57:44.579Z,30.14
2019-04-11T11:00:45.359Z,30.60
2019-04-11T11:03:27.825Z,30.19
2019-04-11T11:05:59.664Z,29.02
2019-04-11T11:08:33.351Z,29.46
2019-04-11T11:11:08.138Z,29.96
2019-04-11T11:13:56.266Z,29.89
2019-04-11T11:16:30.572Z,29.85
2019-04-11T11:19:33.551Z,29.15
2019-04-11T11:21:53.324Z,29.02
2019-04-11T11:24:42.093Z,28.66
2019-04-11T11:27:11.050Z,28.24
2019-04-11T11:30:01.626Z,28.28
2019-04-11T11:32:33.535Z,28.45
2019-04-11T11:35:33.663Z,28.93
2019-04-11T11:38:06.019Z,29.01
2019-04-11T11:40:54.135Z,28.58
2019-04-11T11:43:25.469Z,28.05
2019-04-11T11:46:12.295Z,27.81
2019-04-11T11:48:53.727Z,28.17
2019-04-11T11:51:30.068Z,27.96
2019-04-11T11:54:24.875Z,28.30
2019-04-11T11:56:56.197Z,27.40
2019-04-11T11:59:38.609Z,27.52
2019-04-11T12:02:17.227Z,27.98
2019-04-11T12:05:16.243Z,27.29
2019-04-11T12:07:54.477Z,27.79
2019-04-11T12:10:59.673Z,27.56
2019-04-11T12:13:40.810Z,27.51
2019-04-11T12:16:38.130Z,27.60
2019-04-11T12:19:18.018Z,27.55
2019-04-11T12:21:46.407Z,27.61
2019-04-11T12:24:32.223Z,27.55
2019-04-11T12:27:20.690Z,27.40
2019-04-11T12:30:09.523Z,27.60
2019-04-11T12:32:42.590Z,27.59
2019-04-11T12:35:30.547Z,27.39
2019-04-11T12:38:04.843Z,27.57
2019-04-11T12:40:51.357Z,27.42
2019-04-11T12:43:20.231Z,27.39
2019-04-11T12:46:10.621Z,27.43
2019-04-11T12:48:45.087Z,27.85
2019-04-11T12:51:31.137Z,27.30
2019-04-11T12:54:00.616Z,27.39
2019-04-11T12:56:47.634Z,27.03
2019-04-11T12:59:20.670Z,27.21
2019-04-11T13:02:07.821Z,27.00
2019-04-11T13:04:39.129Z,27.21
2019-04-11T13:07:33.221Z,27.12
2019-04-11T13:10:24.287Z,27.33
2019-04-11T13:13:24.407Z,26.75
2019-04-11T13:16:11.844Z,26.79
2019-04-11T13:19:14.231Z,26.86
2019-04-11T13:21:55.714Z,26.79
2019-04-11T13:24:44.822Z,27.32
2019-04-11T13:27:16.040Z,26.75
2019-04-11T13:30:04.287Z,26.97
2019-04-11T13:32:48.586Z,26.13
2019-04-11T13:35:35.978Z,25.28
2019-04-11T13:38:09.813Z,24.93
2019-04-11T13:41:01.807Z,24.50
2019-04-11T13:44:02.455Z,24.97
2019-04-11T13:46:50.432Z,23.95
2019-04-11T13:49:37.395Z,23.36
2019-04-11T13:52:28.230Z,23.63
2019-04-11T13:55:20.178Z,23.09
2019-04-11T13:58:08.121Z,23.73
2019-04-11T14:00:45.509Z,22.97
2019-04-11T14:03:45.461Z,23.15
2019-04-11T14:06:23.422Z,23.00
2019-04-11T14:09:20.501Z,23.27
2019-04-11T14:11:50.930Z,22.42
2019-04-11T14:14:22.827Z,22.78
2019-04-11T14:17:12.046Z,23.24
2019-04-11T14:20:03.151Z,22.96
2019-04-11T14:22:43.447Z,23.59
2019-04-11T14:25:25.348Z,23.62
2019-04-11T14:27:56.682Z,23.75
2019-04-11T14:30:46.703Z,23.98
2019-04-11T14:33:15.418Z,23.39
2019-04-11T14:35:58.612Z,23.78
2019-04-11T14:38:27.533Z,23.51
2019-04-11T14:41:11.975Z,23.36
2019-04-11T14:43:48.202Z,22.91
2019-04-11T14:46:25.326Z,23.68
2019-04-11T14:48:56.767Z,23.14
2019-04-11T14:51:46.256Z,23.82
2019-04-11T14:54:18.490Z,23.33
2019-04-11T14:57:06.586Z,22.59
2019-04-11T14:59:40.234Z,23.17
2019-04-11T15:02:13.809Z,23.41
2019-04-11T15:05:07.752Z,24.00
2019-04-11T15:07:37.461Z,23.10
2019-04-11T15:10:25.231Z,23.29
2019-04-11T15:12:54.744Z,23.98
2019-04-11T15:15:29.588Z,22.61
2019-04-11T15:18:00.613Z,22.90
2019-04-11T15:20:55.234Z,23.76
2019-04-11T15:23:24.914Z,23.50
2019-04-11T15:26:12.989Z,22.69
2019-04-11T15:28:59.534Z,23.39
2019-04-11T15:31:47.510Z,22.43
2019-04-11T15:34:38.422Z,23.09
2019-04-11T15:37:20.359Z,22.78
2019-04-11T15:40:14.559Z,22.68
2019-04-11T15:43:05.515Z,23.08
2019-04-11T15:45:53.452Z,22.98
2019-04-11T15:48:53.940Z,23.71
2019-04-11T15:51:58.026Z,23.04
2019-04-11T15:54:45.977Z,23.74
2019-04-11T15:57:48.943Z,23.27
2019-04-11T16:00:35.628Z,23.52
2019-04-11T16:03:09.700Z,23.11
2019-04-11T16:05:53.314Z,23.44
2019-04-11T16:08:39.079Z,24.10
2019-04-11T16:11:35.104Z,23.70
2019-04-11T16:14:13.013Z,23.46
2019-04-11T16:16:59.844Z,23.23
2019-04-11T16:19:47.917Z,22.78
2019-04-11T16:22:36.128Z,22.98
2019-04-11T16:25:09.791Z,23.69
2019-04-11T16:28:07.933Z,23.37
2019-04-11T16:30:48.373Z,23.42
2019-04-11T16:33:39.215Z,22.44
2019-04-11T16:36:27.874Z,22.95
2019-04-11T16:39:11.880Z,22.63
2019-04-11T16:42:01.360Z,23.15
2019-04-11T16:44:50.151Z,23.23
2019-04-11T16:47:28.537Z,23.61
2019-04-11T16:49:57.626Z,23.83
2019-04-11T16:52:26.518Z,24.22
2019-04-11T16:54:55.479Z,23.45
2019-04-11T16:57:24.541Z,23.38
2019-04-11T16:59:53.528Z,23.89
2019-04-11T17:02:24.345Z,23.72
2019-04-11T17:04:55.651Z,23.53
2019-04-11T17:07:42.044Z,24.23
2019-04-11T17:10:11.516Z,24.98
2019-04-11T17:12:40.360Z,25.53
2019-04-11T17:15:09.551Z,25.58
2019-04-11T17:17:39.006Z,25.65
2019-04-11T17:20:08.162Z,25.65
2019-04-11T17:22:37.062Z,25.51
2019-04-11T17:25:06.193Z,26.25
2019-04-11T17:27:35.060Z,25.91
2019-04-11T17:30:04.332Z,26.33
2019-04-11T17:32:33.266Z,28.26
2019-04-11T17:35:02.558Z,28.09
2019-04-11T17:37:33.200Z,27.00
2019-04-11T17:40:02.063Z,27.06
2019-04-11T17:42:31.151Z,27.68
2019-04-11T17:45:00.002Z,28.36
2019-04-11T17:47:28.866Z,27.67
2019-04-11T17:49:59.563Z,28.18
2019-04-11T17:52:28.577Z,28.76
2019-04-11T17:55:00.122Z,30.18
2019-04-11T17:57:28.146Z,29.78
2019-04-11T17:59:59.198Z,30.03
2019-04-11T18:02:27.797Z,32.31
2019-04-11T18:04:58.816Z,31.01
2019-04-11T18:07:27.263Z,30.72
2019-04-11T18:09:56.735Z,30.90
2019-04-11T18:12:26.307Z,31.70
2019-04-11T18:14:55.878Z,32.20
2019-04-11T18:17:24.917Z,31.72
2019-04-11T18:19:53.888Z,31.90
2019-04-11T18:22:22.697Z,32.06
2019-04-11T18:24:51.499Z,32.05
2019-04-11T18:27:21.899Z,34.19
2019-04-11T18:29:52.957Z,32.80
2019-04-11T18:32:21.960Z,32.55
2019-04-11T18:34:50.756Z,32.88
2019-04-11T18:37:19.774Z,33.48
2019-04-11T18:39:48.981Z,34.00
2019-04-11T18:42:18.005Z,34.73
2019-04-11T18:44:47.083Z,34.35
2019-04-11T18:47:16.034Z,34.31
2019-04-11T18:49:44.942Z,34.08
2019-04-11T18:52:19.614Z,34.57
2019-04-11T18:54:44.537Z,35.34
2019-04-11T18:57:13.460Z,34.84
2019-04-11T18:59:42.340Z,35.16
2019-04-11T19:02:11.815Z,35.05
2019-04-11T19:04:42.220Z,35.46
2019-04-11T19:07:13.304Z,36.09
2019-04-11T19:09:43.885Z,35.66
2019-04-11T19:12:15.904Z,35.50
2019-04-11T19:14:46.090Z,35.51
2019-04-11T19:17:16.336Z,36.01
2019-04-11T19:19:48.679Z,36.11
2019-04-11T19:22:16.090Z,36.02
2019-04-11T19:24:45.053Z,36.00
2019-04-11T19:27:16.276Z,36.38
2019-04-11T19:29:44.667Z,39.06
2019-04-11T19:32:13.455Z,36.95
2019-04-11T19:34:42.224Z,37.26
2019-04-11T19:37:12.000Z,37.22
2019-04-11T19:39:45.153Z,37.35
2019-04-11T19:42:12.209Z,37.69
2019-04-11T19:44:41.075Z,37.92
2019-04-11T19:47:10.063Z,38.11
2019-04-11T19:49:38.920Z,38.75
2019-04-11T19:52:07.837Z,38.44
2019-04-11T19:54:36.638Z,39.19
2019-04-11T19:57:06.549Z,39.27
2019-04-11T19:59:35.543Z,39.63
2019-04-11T20:02:04.523Z,39.87
2019-04-11T20:04:33.382Z,40.11
2019-04-11T20:07:02.479Z,40.56
2019-04-11T20:09:31.342Z,40.28
2019-04-11T20:12:01.027Z,40.94
2019-04-11T20:14:33.871Z,40.86
2019-04-11T20:17:00.623Z,40.53
2019-04-11T20:19:29.636Z,40.81
2019-04-11T20:21:58.446Z,40.98
2019-04-11T20:24:27.279Z,40.82
2019-04-11T20:26:56.162Z,42.31
2019-04-11T20:29:25.093Z,41.41
2019-04-11T20:31:54.071Z,42.24
2019-04-11T20:34:27.692Z,41.08
2019-04-11T20:36:53.648Z,41.00
2019-04-11T20:39:22.531Z,41.45
2019-04-11T20:41:53.462Z,40.98
2019-04-11T20:44:22.026Z,41.21
2019-04-11T20:46:50.990Z,41.77
2019-04-11T20:49:19.880Z,41.45
2019-04-11T20:51:48.783Z,42.13
2019-04-11T20:54:17.591Z,42.07
2019-04-11T20:56:46.461Z,42.28
2019-04-11T20:59:15.381Z,42.36
2019-04-11T21:01:44.208Z,43.22
2019-04-11T21:04:13.616Z,42.51
2019-04-11T21:06:42.634Z,43.50
2019-04-11T21:09:12.142Z,43.96
2019-04-11T21:11:41.052Z,42.96
2019-04-11T21:14:09.946Z,43.49
2019-04-11T21:16:38.798Z,43.30
2019-04-11T21:19:07.586Z,45.48
2019-04-11T21:21:36.387Z,43.36
2019-04-11T21:24:05.345Z,43.53
2019-04-11T21:26:34.199Z,43.97
2019-04-11T21:29:03.271Z,43.62
2019-04-11T21:31:32.055Z,43.93
2019-04-11T21:34:02.311Z,43.93
2019-04-11T21:36:32.284Z,44.02
2019-04-11T21:39:03.608Z,44.15
2019-04-11T21:41:36.092Z,43.67
2019-04-11T21:44:05.828Z,43.94
2019-04-11T21:46:37.412Z,44.13
2019-04-11T21:49:06.133Z,44.23
2019-04-11T21:51:34.227Z,44.07
2019-04-11T21:54:02.988Z,44.38
2019-04-11T21:56:31.876Z,43.90
2019-04-11T21:59:00.768Z,43.83
2019-04-11T22:01:30.206Z,43.95
2019-04-11T22:03:59.027Z,44.40
2019-04-11T22:06:28.016Z,44.48
2019-04-11T22:08:58.441Z,44.46
2019-04-11T22:11:27.429Z,44.48
2019-04-11T22:13:56.419Z,44.44
2019-04-11T22:16:25.240Z,44.45
2019-04-11T22:18:54.177Z,43.87
2019-04-11T22:21:23.070Z,44.84
2019-04-11T22:23:51.923Z,44.82
2019-04-11T22:26:20.796Z,44.78
2019-04-11T22:28:49.672Z,44.82
2019-04-11T22:31:18.681Z,44.37
2019-04-11T22:33:57.638Z,44.53
2019-04-11T22:36:24.349Z,44.86
2019-04-11T22:38:53.191Z,45.11
2019-04-11T22:41:21.975Z,45.20
2019-04-11T22:43:52.094Z,45.14
2019-04-11T22:46:21.239Z,45.20
2019-04-11T22:48:50.188Z,44.82
2019-04-11T22:51:19.074Z,45.14
2019-04-11T22:53:47.858Z,45.26
2019-04-11T22:56:16.733Z,45.23
2019-04-11T22:58:45.746Z,45.34
2019-04-11T23:01:16.528Z,45.29
2019-04-11T23:03:52.245Z,45.31
2019-04-11T23:06:21.042Z,45.47
2019-04-11T23:08:50.053Z,45.75
2019-04-11T23:11:18.984Z,45.68
2019-04-11T23:13:47.884Z,45.62
2019-04-11T23:16:16.867Z,45.69
2019-04-11T23:18:45.798Z,45.66
2019-04-11T23:21:15.136Z,45.11
2019-04-11T23:23:44.468Z,45.29
2019-04-11T23:26:13.447Z,45.51
2019-04-11T23:28:45.916Z,45.97
2019-04-11T23:31:12.784Z,45.56
2019-04-11T23:33:41.824Z,46.39
2019-04-11T23:36:11.004Z,45.75
2019-04-11T23:38:40.079Z,45.71
2019-04-11T23:41:09.229Z,45.83
2019-04-11T23:43:38.329Z,45.97
2019-04-11T23:46:08.498Z,45.86
2019-04-11T23:48:37.614Z,46.14
2019-04-11T23:51:06.671Z,45.62
2019-04-11T23:53:35.939Z,46.03
2019-04-11T23:56:05.218Z,46.17
2019-04-11T23:58:34.459Z,45.93
